Flight Track Log - Related Links

Times and Time Zones

All times are in EDT time to prevent confusion due to time zone crossing. See the JBU917 flight status page for this flight to view local times or setup timezone preferences in your user account.

Time Position Orientation Groundspeed Altitude Reporting Facility
EDT Latitude Longitude Course Direction KTS MPH feet Rate Location/Type
Thu 09:06:30 PM 40.6167 -73.7833 306° West 152 175 800  Level New York TRACON
Thu 09:08:30 PM 40.5833 -73.7167 123° Southeast 254 292 4,500 2,367 Climbing New York TRACON
Thu 09:09:00 PM 40.8465 -74.1762 304° West  Level FlightAware Approximate
Thu 09:09:30 PM 40.6333 -73.6333 52° Northeast 278 320 7,900  Level New York TRACON
Thu 09:10:00 PM 40.9019 -74.2811 306° West  Level FlightAware Approximate
Thu 09:10:30 PM 40.7000 -73.5500 43° Northeast 293 337 10,900  Level New York TRACON
Thu 09:11:00 PM 40.9585 -74.3851 306° West  Level FlightAware Approximate
Thu 09:13:18 PM 40.8972 -73.5767 354° North 379 436 16,400  Level New York Center
Thu 09:14:16 PM 40.9408 -73.6608 304° West 370 426 17,000 300 Climbing New York Center
Thu 09:15:18 PM 41.0003 -73.7817 303° West 360 414 17,000  Level New York Center
Thu 09:16:17 PM 41.0203 -73.8981 283° West 354 407 17,000 1,059 Level New York Center
Thu 09:17:17 PM 41.0500 -74.0314 287° West 354 407 19,100 2,033 Climbing New York Center
Thu 09:18:18 PM 41.0839 -74.1569 290° West 359 413 21,100 1,967 Climbing New York Center
Thu 09:19:19 PM 41.1242 -74.2803 293° West 365 420 23,100 1,916 Climbing New York Center
Thu 09:20:17 PM 41.1617 -74.4089 291° West 365 420 24,900 958 Climbing New York Center
Thu 09:21:18 PM 41.1994 -74.5378 291° West 372 428 25,000 50 Climbing New York Center
Thu 09:22:17 PM 41.2389 -74.6669 292° West 372 428 25,000 403 Level New York Center
Thu 09:23:17 PM 41.2761 -74.7989 291° West 377 434 25,800 1,000 Climbing New York Center
Thu 09:24:17 PM 41.3117 -74.9197 291° West 377 434 27,000 1,190 Climbing New York Center
Thu 09:25:18 PM 41.3506 -75.0547 291° West 389 448 28,200 1,230 Climbing New York Center
Thu 09:26:19 PM 41.3914 -75.1900 292° West 394 453 29,500 1,200 Climbing New York Center
Thu 09:27:18 PM 41.4297 -75.3281 290° West 394 453 30,600 1,150 Climbing New York Center
Thu 09:28:19 PM 41.4683 -75.4636 291° West 394 453 31,800 1,190 Climbing New York Center
Thu 09:29:19 PM 41.5086 -75.5994 292° West 394 453 33,000 1,017 Climbing New York Center
Thu 09:30:17 PM 41.5467 -75.7353 291° West 394 453 33,800 850 Climbing New York Center
Thu 09:31:19 PM 41.5869 -75.8658 292° West 394 453 34,700 800 Climbing New York Center
Thu 09:32:17 PM 41.6247 -76.0047 290° West 394 453 35,400 605 Climbing New York Center
Thu 09:33:18 PM 41.6625 -76.1381 291° West 394 453 35,900 293 Climbing New York Center
Thu 09:34:20 PM 41.7000 -76.2772 290° West 394 453 36,000 50 Climbing New York Center
Thu 09:35:17 PM 41.7467 -76.4367 291° West 399 459 36,000  Level New York Center
Thu 09:36:19 PM 41.7781 -76.5592 289° West 394 453 36,000  Level New York Center
Thu 09:38:46 PM 41.8761 -76.9072 291° West 402 463 36,000  Level Cleveland Center
Thu 09:39:46 PM 41.9161 -77.0475 291° West 402 463 36,000  Level Cleveland Center
Thu 09:40:46 PM 41.9517 -77.1878 289° West 402 463 36,000  Level Cleveland Center
Thu 09:41:46 PM 41.9911 -77.3311 290° West 402 463 36,000  Level Cleveland Center
Thu 09:42:46 PM 42.0283 -77.4717 290° West 402 463 36,000  Level Cleveland Center
Thu 09:43:46 PM 42.0653 -77.6097 290° West 402 463 36,000  Level Cleveland Center
Thu 09:44:46 PM 42.1000 -77.7456 289° West 402 463 36,000  Level Cleveland Center
Thu 09:45:46 PM 42.1367 -77.8811 290° West 397 457 36,000  Level Cleveland Center
Thu 09:46:46 PM 42.1711 -78.0142 289° West 387 445 36,000  Level Cleveland Center
Thu 09:47:46 PM 42.2053 -78.1500 289° West 382 440 36,000  Level Cleveland Center
Thu 09:48:46 PM 42.2414 -78.2889 289° West 382 440 36,000  Level Cleveland Center
Thu 09:49:46 PM 42.2775 -78.4250 290° West 382 440 36,000  Level Cleveland Center
Thu 09:50:46 PM 42.3133 -78.5672 289° West 387 445 36,000  Level Cleveland Center
Thu 09:51:46 PM 42.3492 -78.7036 290° West 387 445 36,000  Level Cleveland Center
Thu 09:52:46 PM 42.3844 -78.8403 289° West 387 445 36,000  Level Cleveland Center
Thu 09:53:46 PM 42.4200 -78.9883 288° West 382 440 36,000  Level Cleveland Center
Thu 09:54:46 PM 42.4508 -79.1142 288° West 387 445 36,000  Level Cleveland Center
Thu 09:55:46 PM 42.4858 -79.2542 289° West 387 445 36,000  Level Cleveland Center
Thu 09:56:46 PM 42.5000 -79.3975 278° West 381 438 36,000  Level Cleveland Center
Thu 09:57:46 PM 42.5033 -79.5383 272° West 381 438 36,000  Level Cleveland Center
Thu 09:58:46 PM 42.5131 -79.6847 275° West 386 444 36,000  Level Cleveland Center
Thu 09:59:46 PM 42.5203 -79.8311 274° West 386 444 36,000  Level Cleveland Center
Thu 10:00:46 PM 42.5253 -79.9917 272° West 386 444 36,000  Level Cleveland Center
Thu 10:01:46 PM 42.5303 -80.1353 273° West 386 444 36,000  Level Cleveland Center
Thu 10:02:46 PM 42.5369 -80.2789 274° West 386 444 36,000  Level Cleveland Center
Thu 10:03:46 PM 42.5414 -80.4225 272° West 386 444 36,000  Level Cleveland Center
Thu 10:04:46 PM 42.5478 -80.5633 274° West 377 434 36,000  Level Cleveland Center
Thu 10:05:46 PM 42.5539 -80.7100 273° West 383 441 36,000  Level Cleveland Center
Thu 10:06:46 PM 42.5600 -80.8369 274° West 384 442 36,000  Level Cleveland Center
Thu 10:07:46 PM 42.5636 -80.9836 272° West 384 442 36,000  Level Cleveland Center
Thu 10:08:46 PM 42.5694 -81.1300 273° West 384 442 36,000  Level Cleveland Center
Thu 10:09:46 PM 42.5747 -81.2767 273° West 384 442 36,000  Level Cleveland Center
Thu 10:10:46 PM 42.5800 -81.4206 273° West 384 442 36,000  Level Cleveland Center
Thu 10:11:46 PM 42.6019 -81.5619 282° West 384 442 36,000  Level Cleveland Center
Thu 10:12:46 PM 42.6278 -81.7064 284° West 389 448 36,000  Level Cleveland Center
Thu 10:13:46 PM 42.6533 -81.8564 283° West 389 448 36,000  Level Cleveland Center
Thu 10:14:46 PM 42.6786 -82.0008 283° West 394 453 36,000  Level Cleveland Center
Thu 10:15:46 PM 42.7019 -82.1428 283° West 394 453 36,000  Level Cleveland Center
Thu 10:16:46 PM 42.7289 -82.2847 285° West 394 453 36,000  Level Cleveland Center
Thu 10:17:46 PM 42.7517 -82.4294 282° West 394 453 36,000  Level Cleveland Center
Thu 10:18:46 PM 42.7744 -82.5744 282° West 394 453 36,000  Level Cleveland Center
Thu 10:19:46 PM 42.7989 -82.7139 283° West 394 453 36,000  Level Cleveland Center
Thu 10:20:46 PM 42.8044 -82.8583 273° West 394 453 36,000  Level Cleveland Center
Thu 10:21:46 PM 42.8100 -83.0058 273° West 389 448 36,000 -50 Level Cleveland Center
Thu 10:22:46 PM 42.8131 -83.1531 272° West 389 448 35,900 -650 Descending Cleveland Center
Thu 10:23:46 PM 42.8200 -83.3033 274° West 389 448 34,700 -1,200 Descending Cleveland Center
Thu 10:24:46 PM 42.8228 -83.4481 272° West 389 448 33,500 -1,150 Descending Cleveland Center
Thu 10:25:46 PM 42.8250 -83.6008 271° West 396 456 32,400 -750 Descending Cleveland Center
Thu 10:26:46 PM 42.8292 -83.7542 272° West 401 461 32,000 -136 Descending Cleveland Center
Thu 10:28:42 PM 42.8344 -84.0278 272° West 406 467 32,000  Level Chicago Center
Thu 10:29:44 PM 42.8378 -84.1806 272° West 406 467 32,000  Level Chicago Center
Thu 10:30:45 PM 42.8411 -84.3628 271° West 403 464 32,000  Level Chicago Center
Thu 10:31:47 PM 42.8436 -84.5164 271° West 407 468 32,000  Level Chicago Center
Thu 10:32:48 PM 42.8464 -84.6686 271° West 404 465 32,000  Level Chicago Center
Thu 10:33:49 PM 42.8489 -84.8217 271° West 404 465 32,000  Level Chicago Center
Thu 10:34:51 PM 42.8444 -84.9733 268° West 402 463 32,000  Level Chicago Center
Thu 10:35:52 PM 42.8275 -85.1247 261° West 404 465 32,000  Level Chicago Center
Thu 10:36:53 PM 42.8111 -85.2767 262° West 405 466 32,000  Level Chicago Center
Thu 10:37:55 PM 42.7939 -85.4297 261° West 408 470 32,000 -976 Level Chicago Center
Thu 10:38:56 PM 42.7717 -85.5808 259° West 407 468 30,000 -2,049 Descending Chicago Center
Thu 10:39:58 PM 42.7447 -85.7314 256° West 409 471 27,800 -2,098 Descending Chicago Center
Thu 10:40:59 PM 42.7178 -85.8769 256° West 397 457 25,700 -2,213 Descending Chicago Center
Thu 10:42:00 PM 42.6869 -86.0481 256° West 386 444 23,300 -2,146 Descending Chicago Center
Thu 10:43:02 PM 42.6622 -86.1853 256° West 377 434 21,300 -1,902 Descending Chicago Center
Thu 10:44:03 PM 42.6367 -86.3225 256° West 374 430 19,400 -1,512 Descending Chicago Center
Thu 10:45:05 PM 42.6097 -86.4603 255° West 376 433 18,200 -1,220 Descending Chicago Center
Thu 10:46:06 PM 42.5844 -86.5967 256° West 374 430 16,900 -1,279 Descending Chicago Center
Thu 10:47:07 PM 42.5592 -86.7339 256° West 376 433 15,600 -1,220 Descending Chicago Center
Thu 10:48:09 PM 42.5253 -86.8628 250° West 369 425 14,400 -1,171 Descending Chicago Center
Thu 10:49:10 PM 42.4908 -86.9872 249° West 358 412 13,200 -1,180 Descending Chicago Center
Thu 10:50:11 PM 42.4553 -87.1092 248° West 352 405 12,000 -1,180 Descending Chicago Center
Thu 10:51:12 PM 42.4231 -87.2283 250° West 341 392 10,800 -976 Descending Chicago Center
Thu 10:52:14 PM 42.3836 -87.3675 249° West 331 381 10,000 -390 Descending Chicago Center
Thu 10:53:15 PM 42.3514 -87.4867 250° West 331 381 10,000  Level Chicago Center
Thu 10:54:16 PM 42.2947 -87.5797 231° Southwest 327 376 10,000 -146 Level Chicago Center
Thu 10:55:18 PM 42.2322 -87.6481 219° Southwest 298 343 9,700 -976 Descending Chicago Center
Thu 10:56:19 PM 42.1750 -87.7078 218° Southwest 272 313 8,000 -1,328 Descending Chicago Center
Thu 10:57:20 PM 42.1189 -87.7669 218° Southwest 262 302 7,000 -684 Descending Chicago Center
Thu 10:57:38 PM 42.1000 -87.7833 213° Southwest 261 300 7,100  Climbing Chicago TRACON
Thu 10:58:38 PM 42.1000 -87.9000 270° West 268 308 7,000 -50 Descending Chicago TRACON
Thu 10:59:38 PM 42.1000 -87.9833 270° West 209 241 7,000  Level Chicago TRACON
Thu 11:00:38 PM 42.1000 -88.0500 270° West 176 203 7,000 -350 Level Chicago TRACON
Thu 11:01:38 PM 42.0833 -88.1167 251° West 176 203 6,300 -944 Descending Chicago TRACON
Thu 11:02:26 PM 42.0908 -88.1606 283° West 178 205 5,300 -1,255 Descending Chicago Center
Thu 11:03:28 PM 42.0711 -88.2100 242° Southwest 181 208 4,000 -634 Descending Chicago Center
Thu 11:04:29 PM 42.0269 -88.2067 177° South 163 188 4,000 -98 Level Chicago Center
Thu 11:05:30 PM 41.9933 -88.1742 144° Southeast 171 197 3,800 -443 Descending Chicago Center
Thu 11:06:31 PM 41.9750 -88.1164 113° Southeast 172 198 3,100 -732 Descending Chicago Center
Thu 11:07:33 PM 41.9686 -88.0539 98° East 171 197 2,300 -732 Descending Chicago Center
Thu 11:08:34 PM 41.9683 -87.9886 90° East 159 183 1,600 -492 Descending Chicago Center
Thu 11:09:35 PM 41.9686 -87.9428 90° East 152 175 1,300 -295 Descending Chicago Center

Login

Don't have an account? Register now (free) for customized features, flight alerts, and more!